Gillette Campbell County Airport Gillette US
ICAO: KGCC
IATA: GCC
Category: Medium
Scheduled Services: Yes

Elevation: 4365 ft
TransAlt. 18000 ft.

Airport Communications:
ASOS:124.175
DENVER CNTR:135.6
CTAF:118.5
GND:121.7
CASPER RDO:122.3
TWR:118.5
UNICOM:122.95

KGCC Zoom In..

Runways:

(A) RW 03 length 5803 ft width 75 ft
---- / hdg 26

(B) RW 16 length 7501 ft width 150 ft
---- / hdg 158

(C) RW 21 length 5803 ft width 75 ft
---- / hdg 206

(D) RW 34 length 7501 ft width 150 ft
ILS 110.10 / hdg 338

Location; KGCC
Day. 19 / Time. 03.53 Zulu
* Altimeter: 30.05
* Temperature: 19° c. 66.2°f.
* Wind from: 210° Speed 04 kn.
Dewpoint: 13° c.
Visibility: 10 Statute Miles.

KGCC 190353Z AUTO 21004KT 10SM 19/13 A3005 RMK AO2 SLP129 T01940133 $


Wind From 210°
Speed 04 kn.

 
 
jpsmedia.com for Web Design worldairports.se 2018   terms of use